Terminal Aerodrome Forecast
Issued by NWS

Home | Current Version | Previous Version | Graphics & Text | Print | Product List | Glossary On
Versions: 1 2 3 4 5 6 7 8 9 10 11 12
674
FTUS43 KLSX 242337
TAFUIN
TAF
KUIN 242337Z 2500/2524 14006KT P6SM SCT250
     FM251400 23008KT P6SM SCT050 BKN100 PROB30 2516/2520 4SM -TSRA
      OVC025CB
     FM252000 27009KT 4SM -SHRA VCTS OVC045CB
     FM252300 29009KT P6SM OVC070=

USA.gov is the U.S. government's official web portal to all federal, state and local government web resources and services.